KMGE METAR and TAF | Updated Today

KMGE METAR

Dobbins Air Reserve Base

Observation time: 3 min. ago

KMGE 301756Z 24005KT 10SM CLR 17/00 A3015 RMK AO2A SLP213 T01680004 10168 21013 58013 $

Need help? Read our tutorial on how to read METARs or read the parsed version below.

Dobbins Air Reserve Base (KMGE) METAR

  • Weather conditions on Tue, 30 Nov 2021 17:56:00 +0000 (3 min. ago):
  • Present conditions: Dry
  • Clouds: Clear skies
  • Visibility: 16093 meters
  • Wind: 240 degrees at 5 knots
  • Temperature: 17 celsius
  • Dew point: 0 celsius
  • Pressure: 30.15 inHg
  • Remarks: AO2A SLP213 T01680004 10168 21013 58013 $


Useful to know...

KMGE TAF

Dobbins Air Reserve Base

TAF KMGE 301400Z 3014/0120 VRB05KT 9999 SKC QNH3016INS BECMG 3015/3016 27012KT 9999 SKC QNH3010INS WND VRB05KT AFT 0100 TX17/3021Z TN04/3014Z
Observation time: 3:59 hr. ago
Need help? Read our tutorial on how to read TAFs or read the parsed version below.

Parsed version of TAF for Dobbins Air Reserve Base (KMGE)

  • From 30 November at 14:00 UTC, to day 01 of the month at 20:00 UTC
  • Clouds: No significant changes expected
  • Visibility: Greater than 10 km
  • Wind: Variable at 5
  • Expected to arise soon, from 30 November at 15:00 UTC, to day 30 of the month at 16:00 UTC
  • Clouds: No significant changes expected
  • Visibility: Greater than 10 km
  • Wind: 270 degrees at 12